• Join FlightAware (Why Join?)
  • Login
  • US Flag 
03:47PM EST


 

Airport Tracker/Info


-or-


 

Live Flight TrackerFlight Track Log ✈ N762NC ✈ 15-Aug-2013 ✈ KATL - KLIT

Flight Track Log - Related Links

Times and Time Zones

All times are in EDT time to prevent confusion due to time zone crossing. See the N762NC flight status page for this flight to view local times or setup timezone preferences in your user account.

Time Position Orientation Groundspeed Altitude Reporting Facility
EDT Latitude Longitude Course Direction KTS MPH feet Rate Location/Type
12:18PM 33.6667 -84.3500 268° West 211 243 3,500  Level Atlanta TRACON
12:19PM 33.7000 -84.3000 51° Northeast 280 322 5,400 2,158 Climbing Atlanta TRACON
12:19PM 33.7667 -84.2833 12° North 281 323 7,600 2,299 Climbing Atlanta TRACON
12:20PM 33.6894 -84.9255 280° West  Level FlightAware Approximate
12:21PM 33.7075 -85.0520 280° West  Level FlightAware Approximate
12:21PM 33.8125 -84.4189 292° West 276 318 11,800  Level Atlanta Center
12:22PM 33.7167 -85.1794 270° West  Level FlightAware Approximate
12:22PM 33.8058 -84.5264 266° West 291 335 13,200  Level Atlanta Center
12:23PM 33.7136 -85.3077 268° West  Level FlightAware Approximate
12:23PM 33.7950 -84.6361 263° West 316 364 14,800  Level Atlanta Center
12:24PM 33.7900 -84.7486 267° West 333 383 16,900 1,767 Climbing Atlanta Center
12:26PM 33.7928 -84.9836 271° West 350 403 20,100 1,467 Climbing Atlanta Center
12:27PM 33.7917 -85.1036 269° West 362 417 21,300 1,289 Climbing Atlanta Center
12:28PM 33.7883 -85.2461 268° West 373 429 22,700 1,500 Climbing Atlanta Center
12:29PM 33.7767 -85.3683 263° West 378 435 24,300 1,311 Climbing Atlanta Center
12:30PM 33.7647 -85.4981 264° West 385 443 25,300 1,050 Climbing Atlanta Center
12:31PM 33.7506 -85.6278 263° West 390 449 26,400 1,150 Climbing Atlanta Center
12:32PM 33.7364 -85.7550 262° West 390 449 27,600 807 Climbing Atlanta Center
12:33PM 33.7197 -85.8944 262° West 401 461 28,000 198 Climbing Atlanta Center
12:34PM 33.6989 -86.0339 260° West 416 479 28,000  Level Atlanta Center
12:35PM 33.6797 -86.1756 261° West 434 499 28,000  Level Atlanta Center
12:36PM 33.6603 -86.3250 261° West 445 512 28,000  Level Atlanta Center
12:37PM 33.6431 -86.4667 262° West 445 512 28,000  Level Atlanta Center
12:38PM 33.6275 -86.6133 263° West 445 512 28,000  Level Atlanta Center
12:39PM 33.6097 -86.7575 262° West 445 512 28,000  Level Atlanta Center
12:40PM 33.6128 -86.9022 271° West 445 512 28,000  Level Atlanta Center
12:41PM 33.6619 -87.0339 294° West 430 495 28,000  Level Atlanta Center
12:44PM 33.7858 -87.3606 295° West 447 514 28,000  Level Memphis Center
12:45PM 33.8433 -87.4911 298° West 442 509 28,000  Level Memphis Center
12:46PM 33.8922 -87.6269 293° West 442 509 28,000  Level Memphis Center
12:47PM 33.9447 -87.7406 299° West 442 509 28,000  Level Memphis Center
12:48PM 33.9975 -87.8744 295° West 442 509 28,000 -50 Level Memphis Center
12:49PM 34.0211 -88.0164 281° West 432 497 27,900  Descending Memphis Center
12:50PM 34.0425 -88.1611 280° West 432 497 28,000 50 Climbing Memphis Center
12:51PM 34.0619 -88.3236 278° West 443 510 28,000  Level Memphis Center
12:52PM 34.0831 -88.4661 280° West 443 510 28,000  Level Memphis Center
12:53PM 34.1019 -88.6089 279° West 443 510 28,000  Level Memphis Center
12:54PM 34.1225 -88.7514 280° West 443 510 28,000  Level Memphis Center
12:55PM 34.1411 -88.8942 279° West 438 504 28,000  Level Memphis Center
12:56PM 34.1594 -89.0369 279° West 438 504 28,000  Level Memphis Center
12:57PM 34.1817 -89.1797 281° West 438 504 28,000  Level Memphis Center
12:58PM 34.1831 -89.3278 271° West 438 504 28,000  Level Memphis Center
12:59PM 34.1819 -89.4708 270° West 438 504 28,000  Level Memphis Center
01:00PM 34.1850 -89.6039 272° West 438 504 28,000  Level Memphis Center
01:01PM 34.1858 -89.7519 270° West 438 504 28,000  Level Memphis Center
01:02PM 34.1886 -89.9003 271° West 443 510 28,000 -300 Level Memphis Center
01:03PM 34.1911 -90.0483 271° West 443 510 27,400 -700 Descending Memphis Center
01:04PM 34.1956 -90.1989 272° West 443 510 26,600 -850 Descending Memphis Center
01:05PM 34.1997 -90.3622 272° West 443 510 25,700 -900 Descending Memphis Center
01:06PM 34.2061 -90.5028 273° West 443 510 24,800 -950 Descending Memphis Center
01:07PM 34.2100 -90.6436 272° West 433 498 23,800 -1,000 Descending Memphis Center
01:08PM 34.2139 -90.7817 272° West 415 478 22,800 -900 Descending Memphis Center
01:09PM 34.2175 -90.9147 272° West 410 472 22,000 -950 Descending Memphis Center
01:10PM 34.2189 -91.0481 271° West 403 464 20,900 -1,450 Descending Memphis Center
01:11PM 34.2347 -91.1811 278° West 403 464 19,100 -2,400 Descending Memphis Center
01:12PM 34.2861 -91.2947 299° West 390 449 16,100 -2,700 Descending Memphis Center
01:13PM 34.3292 -91.4008 296° West 390 449 13,700 -2,750 Descending Memphis Center
01:14PM 34.3739 -91.5147 295° West 381 438 10,600 -1,805 Descending Memphis Center
01:15PM 34.4167 -91.6236 295° West 310 357 10,000 -950 Descending Memphis Center
01:16PM 34.4578 -91.6922 306° West 316 364 8,700 -1,487 Descending Memphis Center
01:17PM 34.5028 -91.7811 302° West 287 330 7,100 -1,700 Descending Memphis Center
01:18PM 34.5331 -91.8622 294° West 274 315 5,300 -1,600 Descending Memphis Center
01:19PM 34.5569 -91.9483 289° West 274 315 3,900 -1,050 Descending Memphis Center
01:20PM 34.5686 -92.0294 280° West 258 297 3,200 -400 Descending Memphis Center
01:21PM 34.5819 -92.1078 282° West 253 291 3,100 -100 Descending Memphis Center
01:22PM 34.5975 -92.1839 284° West 240 276 3,000 -508 Descending Memphis Center
01:23PM 34.6342 -92.2603 300° West 220 253 2,000 -687 Descending Memphis Center
01:24PM 34.6775 -92.2864 334° Northwest 176 203 1,500 -545 Descending Memphis Center
01:25PM 34.7028 -92.2694 29° Northeast 138 159 1,000 -612 Descending Memphis Center